sensor_id;sensor_type;location;lat;lon;timestamp;pressure;altitude;pressure_sealevel;temperature;humidity
43804;BME280;29430;52.924;-2.388;2022-10-18T00:03:37;100082.84;;;9.26;88.62
43804;BME280;29430;52.924;-2.388;2022-10-18T00:08:29;100077.44;;;9.26;89.04
43804;BME280;29430;52.924;-2.388;2022-10-18T00:13:21;100076.81;;;9.24;90.22
43804;BME280;29430;52.924;-2.388;2022-10-18T00:18:13;100102.41;;;9.21;91.24
43804;BME280;29430;52.924;-2.388;2022-10-18T00:23:05;100110.13;;;9.24;92.20
43804;BME280;29430;52.924;-2.388;2022-10-18T00:27:57;100101.59;;;9.27;93.51
43804;BME280;29430;52.924;-2.388;2022-10-18T00:32:48;100093.50;;;9.27;92.97
43804;BME280;29430;52.924;-2.388;2022-10-18T00:37:40;100098.91;;;9.27;93.93
43804;BME280;29430;52.924;-2.388;2022-10-18T00:42:35;100109.97;;;9.32;95.04
43804;BME280;29430;52.924;-2.388;2022-10-18T00:47:27;100114.56;;;9.39;94.41
43804;BME280;29430;52.924;-2.388;2022-10-18T00:52:26;100111.66;;;9.40;94.30
43804;BME280;29430;52.924;-2.388;2022-10-18T00:57:20;100120.19;;;9.37;94.27
43804;BME280;29430;52.924;-2.388;2022-10-18T01:02:13;100120.38;;;9.36;93.76
43804;BME280;29430;52.924;-2.388;2022-10-18T01:07:30;100128.50;;;9.36;92.87
43804;BME280;29430;52.924;-2.388;2022-10-18T01:22:43;100132.47;;;9.33;93.61
43804;BME280;29430;52.924;-2.388;2022-10-18T01:32:59;100138.03;;;9.25;91.80
43804;BME280;29430;52.924;-2.388;2022-10-18T01:37:55;100143.00;;;9.21;91.17
43804;BME280;29430;52.924;-2.388;2022-10-18T01:42:50;100158.94;;;9.09;90.49
43804;BME280;29430;52.924;-2.388;2022-10-18T01:47:43;100162.19;;;8.98;91.74
43804;BME280;29430;52.924;-2.388;2022-10-18T01:52:49;100161.09;;;8.92;91.96
43804;BME280;29430;52.924;-2.388;2022-10-18T01:58:02;100162.75;;;8.87;91.89
43804;BME280;29430;52.924;-2.388;2022-10-18T02:03:03;100158.13;;;8.81;91.42
43804;BME280;29430;52.924;-2.388;2022-10-18T02:08:08;100170.16;;;8.78;90.80
43804;BME280;29430;52.924;-2.388;2022-10-18T02:13:16;100169.91;;;8.73;91.04
43804;BME280;29430;52.924;-2.388;2022-10-18T02:18:37;100161.31;;;8.69;90.82
43804;BME280;29430;52.924;-2.388;2022-10-18T02:23:32;100162.28;;;8.62;90.45
43804;BME280;29430;52.924;-2.388;2022-10-18T02:28:24;100163.06;;;8.55;90.71
43804;BME280;29430;52.924;-2.388;2022-10-18T02:33:22;100160.31;;;8.49;91.28
43804;BME280;29430;52.924;-2.388;2022-10-18T02:38:19;100167.28;;;8.43;91.13
43804;BME280;29430;52.924;-2.388;2022-10-18T02:43:12;100178.22;;;8.35;91.39
43804;BME280;29430;52.924;-2.388;2022-10-18T02:48:05;100182.53;;;8.29;91.77
43804;BME280;29430;52.924;-2.388;2022-10-18T02:52:57;100184.41;;;8.29;92.03
43804;BME280;29430;52.924;-2.388;2022-10-18T02:57:48;100188.69;;;8.23;91.98
43804;BME280;29430;52.924;-2.388;2022-10-18T03:02:40;100200.06;;;8.18;92.06
43804;BME280;29430;52.924;-2.388;2022-10-18T03:07:32;100196.75;;;8.16;92.51
43804;BME280;29430;52.924;-2.388;2022-10-18T03:12:24;100202.34;;;8.15;92.75
43804;BME280;29430;52.924;-2.388;2022-10-18T03:17:15;100192.09;;;8.10;92.61
43804;BME280;29430;52.924;-2.388;2022-10-18T03:22:07;100202.91;;;8.10;92.92
43804;BME280;29430;52.924;-2.388;2022-10-18T03:26:59;100211.94;;;8.02;91.77
43804;BME280;29430;52.924;-2.388;2022-10-18T03:31:51;100219.31;;;7.94;92.35
43804;BME280;29430;52.924;-2.388;2022-10-18T03:36:42;100219.03;;;7.88;92.39
43804;BME280;29430;52.924;-2.388;2022-10-18T03:41:34;100216.34;;;7.88;95.36
43804;BME280;29430;52.924;-2.388;2022-10-18T03:46:26;100223.50;;;7.96;96.25
43804;BME280;29430;52.924;-2.388;2022-10-18T03:51:18;100235.81;;;7.99;96.17
43804;BME280;29430;52.924;-2.388;2022-10-18T03:56:09;100234.31;;;7.96;96.54
43804;BME280;29430;52.924;-2.388;2022-10-18T04:01:01;100248.94;;;8.02;97.74
43804;BME280;29430;52.924;-2.388;2022-10-18T04:06:00;100256.47;;;8.06;97.49
43804;BME280;29430;52.924;-2.388;2022-10-18T04:10:53;100255.25;;;8.09;98.00
43804;BME280;29430;52.924;-2.388;2022-10-18T04:15:45;100253.59;;;8.08;97.40
43804;BME280;29430;52.924;-2.388;2022-10-18T04:20:37;100261.31;;;8.11;98.22
43804;BME280;29430;52.924;-2.388;2022-10-18T04:25:28;100267.38;;;8.13;99.92
43804;BME280;29430;52.924;-2.388;2022-10-18T04:30:20;100268.19;;;8.14;99.09
43804;BME280;29430;52.924;-2.388;2022-10-18T04:35:12;100273.78;;;8.12;97.82
43804;BME280;29430;52.924;-2.388;2022-10-18T04:40:04;100277.34;;;8.13;98.41
43804;BME280;29430;52.924;-2.388;2022-10-18T04:44:55;100288.16;;;8.13;98.13
43804;BME280;29430;52.924;-2.388;2022-10-18T04:49:47;100280.03;;;8.13;98.68
43804;BME280;29430;52.924;-2.388;2022-10-18T04:54:39;100280.25;;;8.11;98.92
43804;BME280;29430;52.924;-2.388;2022-10-18T04:59:30;100288.97;;;8.13;99.07
43804;BME280;29430;52.924;-2.388;2022-10-18T05:04:22;100282.06;;;8.11;98.29
43804;BME280;29430;52.924;-2.388;2022-10-18T05:09:14;100284.97;;;8.09;97.78
43804;BME280;29430;52.924;-2.388;2022-10-18T05:14:05;100298.66;;;8.07;97.25
43804;BME280;29430;52.924;-2.388;2022-10-18T05:19:00;100290.94;;;8.04;96.97
43804;BME280;29430;52.924;-2.388;2022-10-18T05:23:55;100299.59;;;8.00;96.13
43804;BME280;29430;52.924;-2.388;2022-10-18T05:28:48;100305.75;;;7.94;95.80
43804;BME280;29430;52.924;-2.388;2022-10-18T05:33:41;100299.06;;;7.89;96.14
43804;BME280;29430;52.924;-2.388;2022-10-18T05:38:32;100297.94;;;7.84;94.86
43804;BME280;29430;52.924;-2.388;2022-10-18T05:43:27;100304.25;;;7.76;94.90
43804;BME280;29430;52.924;-2.388;2022-10-18T05:48:19;100304.63;;;7.73;95.81
43804;BME280;29430;52.924;-2.388;2022-10-18T05:53:11;100302.75;;;7.74;97.32
43804;BME280;29430;52.924;-2.388;2022-10-18T05:58:22;100299.22;;;7.73;97.43
43804;BME280;29430;52.924;-2.388;2022-10-18T06:03:14;100304.25;;;7.76;98.01
43804;BME280;29430;52.924;-2.388;2022-10-18T06:08:06;100302.94;;;7.72;96.31
43804;BME280;29430;52.924;-2.388;2022-10-18T06:13:00;100304.53;;;7.66;96.93
43804;BME280;29430;52.924;-2.388;2022-10-18T06:17:52;100299.69;;;7.62;95.83
43804;BME280;29430;52.924;-2.388;2022-10-18T06:22:44;100310.19;;;7.57;95.22
43804;BME280;29430;52.924;-2.388;2022-10-18T06:27:36;100313.78;;;7.49;94.83
43804;BME280;29430;52.924;-2.388;2022-10-18T06:32:27;100316.94;;;7.38;94.71
43804;BME280;29430;52.924;-2.388;2022-10-18T06:37:19;100304.34;;;7.30;94.51
43804;BME280;29430;52.924;-2.388;2022-10-18T06:42:11;100314.31;;;7.29;94.23
43804;BME280;29430;52.924;-2.388;2022-10-18T06:47:02;100312.72;;;7.20;95.76
43804;BME280;29430;52.924;-2.388;2022-10-18T06:51:54;100310.00;;;7.20;96.25
43804;BME280;29430;52.924;-2.388;2022-10-18T06:56:46;100316.59;;;7.17;96.03
43804;BME280;29430;52.924;-2.388;2022-10-18T07:01:37;100320.00;;;7.11;95.47
43804;BME280;29430;52.924;-2.388;2022-10-18T07:06:29;100325.69;;;7.16;96.08
43804;BME280;29430;52.924;-2.388;2022-10-18T07:11:23;100324.03;;;7.15;95.42
43804;BME280;29430;52.924;-2.388;2022-10-18T07:16:17;100332.13;;;7.15;96.47
43804;BME280;29430;52.924;-2.388;2022-10-18T07:21:11;100340.22;;;7.15;96.81
43804;BME280;29430;52.924;-2.388;2022-10-18T07:26:17;100348.59;;;7.21;96.79
43804;BME280;29430;52.924;-2.388;2022-10-18T07:31:10;100354.13;;;7.27;96.29
43804;BME280;29430;52.924;-2.388;2022-10-18T07:36:04;100359.81;;;7.32;96.81
43804;BME280;29430;52.924;-2.388;2022-10-18T07:40:58;100368.03;;;7.39;97.36
43804;BME280;29430;52.924;-2.388;2022-10-18T07:45:56;100370.78;;;7.54;96.99
43804;BME280;29430;52.924;-2.388;2022-10-18T07:50:48;100385.84;;;7.86;100.00
43804;BME280;29430;52.924;-2.388;2022-10-18T07:55:40;100385.38;;;8.87;100.00
43804;BME280;29430;52.924;-2.388;2022-10-18T08:00:32;100390.41;;;9.98;100.00
43804;BME280;29430;52.924;-2.388;2022-10-18T08:05:25;100404.34;;;11.00;100.00
43804;BME280;29430;52.924;-2.388;2022-10-18T08:10:18;100408.88;;;12.02;94.54
43804;BME280;29430;52.924;-2.388;2022-10-18T08:15:11;100413.06;;;12.89;93.45
43804;BME280;29430;52.924;-2.388;2022-10-18T08:20:04;100418.88;;;13.77;86.83
43804;BME280;29430;52.924;-2.388;2022-10-18T08:25:09;100422.59;;;14.51;85.08
43804;BME280;29430;52.924;-2.388;2022-10-18T08:30:01;100415.19;;;14.96;84.47
43804;BME280;29430;52.924;-2.388;2022-10-18T08:34:53;100417.91;;;15.45;81.88
43804;BME280;29430;52.924;-2.388;2022-10-18T08:39:44;100416.75;;;16.18;80.72
43804;BME280;29430;52.924;-2.388;2022-10-18T08:44:55;100418.22;;;17.26;77.17
43804;BME280;29430;52.924;-2.388;2022-10-18T08:49:49;100429.84;;;18.07;70.69
43804;BME280;29430;52.924;-2.388;2022-10-18T08:55:07;100428.91;;;18.36;65.43
43804;BME280;29430;52.924;-2.388;2022-10-18T09:00:12;100428.16;;;18.63;64.30
43804;BME280;29430;52.924;-2.388;2022-10-18T09:15:19;100446.22;;;20.71;57.63
43804;BME280;29430;52.924;-2.388;2022-10-18T09:20:27;100441.66;;;20.98;54.12
43804;BME280;29430;52.924;-2.388;2022-10-18T09:25:48;100450.34;;;21.42;54.63
43804;BME280;29430;52.924;-2.388;2022-10-18T09:31:08;100461.50;;;21.94;50.54
43804;BME280;29430;52.924;-2.388;2022-10-18T09:36:04;100453.75;;;22.11;48.67
43804;BME280;29430;52.924;-2.388;2022-10-18T09:41:04;100464.00;;;22.11;48.38
43804;BME280;29430;52.924;-2.388;2022-10-18T09:45:58;100476.16;;;22.05;48.54
43804;BME280;29430;52.924;-2.388;2022-10-18T09:51:00;100484.16;;;22.32;49.31
43804;BME280;29430;52.924;-2.388;2022-10-18T09:56:01;100495.50;;;22.20;47.50
43804;BME280;29430;52.924;-2.388;2022-10-18T10:00:54;100495.19;;;21.96;49.61
43804;BME280;29430;52.924;-2.388;2022-10-18T10:06:00;100506.56;;;22.20;47.77
43804;BME280;29430;52.924;-2.388;2022-10-18T10:10:52;100507.91;;;22.07;46.97
43804;BME280;29430;52.924;-2.388;2022-10-18T10:15:50;100502.66;;;22.16;46.66
43804;BME280;29430;52.924;-2.388;2022-10-18T10:20:49;100495.47;;;22.15;46.15
43804;BME280;29430;52.924;-2.388;2022-10-18T10:25:42;100496.59;;;22.04;47.34
43804;BME280;29430;52.924;-2.388;2022-10-18T10:30:36;100506.53;;;22.15;47.31
43804;BME280;29430;52.924;-2.388;2022-10-18T10:35:34;100509.31;;;22.05;46.95
43804;BME280;29430;52.924;-2.388;2022-10-18T10:40:47;100502.38;;;21.87;46.37
43804;BME280;29430;52.924;-2.388;2022-10-18T10:46:06;100502.84;;;21.53;47.26
43804;BME280;29430;52.924;-2.388;2022-10-18T10:51:07;100509.16;;;21.48;48.14
43804;BME280;29430;52.924;-2.388;2022-10-18T10:56:00;100505.63;;;21.58;46.77
43804;BME280;29430;52.924;-2.388;2022-10-18T11:00:55;100506.13;;;21.44;46.96
43804;BME280;29430;52.924;-2.388;2022-10-18T11:05:50;100510.44;;;21.20;47.31
43804;BME280;29430;52.924;-2.388;2022-10-18T11:11:35;100495.75;;;21.09;47.21
43804;BME280;29430;52.924;-2.388;2022-10-18T11:16:25;100509.56;;;21.09;46.92
43804;BME280;29430;52.924;-2.388;2022-10-18T11:21:27;100493.41;;;20.80;48.16
43804;BME280;29430;52.924;-2.388;2022-10-18T11:26:38;100500.88;;;20.85;48.07
43804;BME280;29430;52.924;-2.388;2022-10-18T11:41:54;100482.41;;;20.48;48.76
43804;BME280;29430;52.924;-2.388;2022-10-18T12:07:48;100454.03;;;20.10;49.87
43804;BME280;29430;52.924;-2.388;2022-10-18T12:12:54;100454.84;;;20.05;49.09
43804;BME280;29430;52.924;-2.388;2022-10-18T12:17:52;100454.41;;;19.64;50.34
43804;BME280;29430;52.924;-2.388;2022-10-18T12:27:53;100442.09;;;19.17;52.30
43804;BME280;29430;52.924;-2.388;2022-10-18T12:32:47;100444.78;;;19.12;53.53
43804;BME280;29430;52.924;-2.388;2022-10-18T12:38:01;100430.31;;;19.00;53.34
43804;BME280;29430;52.924;-2.388;2022-10-18T12:43:06;100440.47;;;18.77;51.97
43804;BME280;29430;52.924;-2.388;2022-10-18T12:48:03;100454.91;;;18.50;51.03
43804;BME280;29430;52.924;-2.388;2022-10-18T13:13:26;100431.69;;;17.73;51.44
43804;BME280;29430;52.924;-2.388;2022-10-18T13:18:46;100430.09;;;17.60;52.02
43804;BME280;29430;52.924;-2.388;2022-10-18T13:33:37;100445.50;;;17.32;50.95
43804;BME280;29430;52.924;-2.388;2022-10-18T13:48:52;100435.00;;;17.00;52.38
43804;BME280;29430;52.924;-2.388;2022-10-18T13:59:16;100421.09;;;16.90;52.10
43804;BME280;29430;52.924;-2.388;2022-10-18T14:09:18;100401.75;;;16.85;53.22
43804;BME280;29430;52.924;-2.388;2022-10-18T14:14:35;100393.44;;;16.80;53.20
43804;BME280;29430;52.924;-2.388;2022-10-18T14:19:48;100400.38;;;16.71;54.25
43804;BME280;29430;52.924;-2.388;2022-10-18T14:24:45;100407.53;;;16.60;56.16
43804;BME280;29430;52.924;-2.388;2022-10-18T14:29:38;100394.66;;;16.60;57.40
43804;BME280;29430;52.924;-2.388;2022-10-18T14:34:31;100391.94;;;16.60;57.47
43804;BME280;29430;52.924;-2.388;2022-10-18T14:39:25;100406.47;;;16.49;58.41
43804;BME280;29430;52.924;-2.388;2022-10-18T14:44:24;100407.59;;;16.36;59.22
43804;BME280;29430;52.924;-2.388;2022-10-18T14:49:17;100409.00;;;16.27;58.71
43804;BME280;29430;52.924;-2.388;2022-10-18T14:54:14;100419.00;;;16.21;58.48
43804;BME280;29430;52.924;-2.388;2022-10-18T14:59:23;100418.03;;;16.16;57.14
43804;BME280;29430;52.924;-2.388;2022-10-18T15:04:16;100417.19;;;16.03;57.30
43804;BME280;29430;52.924;-2.388;2022-10-18T15:09:08;100404.09;;;15.93;57.37
43804;BME280;29430;52.924;-2.388;2022-10-18T15:14:03;100398.75;;;15.87;57.63
43804;BME280;29430;52.924;-2.388;2022-10-18T15:24:25;100393.13;;;15.70;58.08
43804;BME280;29430;52.924;-2.388;2022-10-18T15:29:19;100393.06;;;15.58;58.15
43804;BME280;29430;52.924;-2.388;2022-10-18T15:44:21;100388.59;;;15.33;58.21
43804;BME280;29430;52.924;-2.388;2022-10-18T15:54:35;100388.81;;;15.20;58.88
43804;BME280;29430;52.924;-2.388;2022-10-18T15:59:28;100386.38;;;15.12;59.47
43804;BME280;29430;52.924;-2.388;2022-10-18T16:04:29;100381.50;;;15.02;59.12
43804;BME280;29430;52.924;-2.388;2022-10-18T16:09:23;100386.88;;;14.90;59.66
43804;BME280;29430;52.924;-2.388;2022-10-18T16:14:18;100384.94;;;14.79;60.27
43804;BME280;29430;52.924;-2.388;2022-10-18T16:19:14;100385.50;;;14.69;60.43
43804;BME280;29430;52.924;-2.388;2022-10-18T16:24:06;100389.56;;;14.60;60.82
43804;BME280;29430;52.924;-2.388;2022-10-18T16:28:58;100392.34;;;14.53;60.65
43804;BME280;29430;52.924;-2.388;2022-10-18T16:33:51;100392.06;;;14.43;61.41
43804;BME280;29430;52.924;-2.388;2022-10-18T16:38:44;100404.09;;;14.35;61.37
43804;BME280;29430;52.924;-2.388;2022-10-18T16:43:36;100389.53;;;14.23;62.31
43804;BME280;29430;52.924;-2.388;2022-10-18T16:48:28;100396.72;;;14.17;62.68
43804;BME280;29430;52.924;-2.388;2022-10-18T16:53:21;100398.06;;;14.08;62.85
43804;BME280;29430;52.924;-2.388;2022-10-18T16:58:16;100421.59;;;14.02;63.35
43804;BME280;29430;52.924;-2.388;2022-10-18T17:03:08;100410.59;;;13.90;64.25
43804;BME280;29430;52.924;-2.388;2022-10-18T17:08:00;100404.81;;;13.80;64.86
43804;BME280;29430;52.924;-2.388;2022-10-18T17:12:52;100409.91;;;13.70;64.84
43804;BME280;29430;52.924;-2.388;2022-10-18T17:17:44;100420.03;;;13.63;65.75
43804;BME280;29430;52.924;-2.388;2022-10-18T17:22:36;100413.84;;;13.49;66.42
43804;BME280;29430;52.924;-2.388;2022-10-18T17:27:28;100426.06;;;13.39;66.74
43804;BME280;29430;52.924;-2.388;2022-10-18T17:32:20;100429.00;;;13.31;67.35
43804;BME280;29430;52.924;-2.388;2022-10-18T17:37:12;100419.41;;;13.22;67.55
43804;BME280;29430;52.924;-2.388;2022-10-18T17:42:04;100416.94;;;13.14;68.27
43804;BME280;29430;52.924;-2.388;2022-10-18T17:46:55;100433.09;;;13.08;68.57
43804;BME280;29430;52.924;-2.388;2022-10-18T17:51:47;100424.34;;;13.00;68.90
43804;BME280;29430;52.924;-2.388;2022-10-18T17:56:39;100414.75;;;12.90;69.15
43804;BME280;29430;52.924;-2.388;2022-10-18T18:01:31;100422.31;;;12.82;69.69
43804;BME280;29430;52.924;-2.388;2022-10-18T18:06:25;100425.28;;;12.74;69.84
43804;BME280;29430;52.924;-2.388;2022-10-18T18:11:24;100423.84;;;12.64;70.44
43804;BME280;29430;52.924;-2.388;2022-10-18T18:16:21;100435.78;;;12.57;70.29
43804;BME280;29430;52.924;-2.388;2022-10-18T18:21:13;100428.91;;;12.47;70.47
43804;BME280;29430;52.924;-2.388;2022-10-18T18:26:05;100424.75;;;12.38;71.40
43804;BME280;29430;52.924;-2.388;2022-10-18T18:30:56;100438.97;;;12.33;71.44
43804;BME280;29430;52.924;-2.388;2022-10-18T18:35:58;100431.88;;;12.26;71.77
43804;BME280;29430;52.924;-2.388;2022-10-18T18:41:04;100419.94;;;12.20;71.79
43804;BME280;29430;52.924;-2.388;2022-10-18T18:45:56;100436.06;;;12.15;71.97
43804;BME280;29430;52.924;-2.388;2022-10-18T18:50:48;100440.44;;;12.09;72.51
43804;BME280;29430;52.924;-2.388;2022-10-18T18:55:41;100433.34;;;12.02;72.49
43804;BME280;29430;52.924;-2.388;2022-10-18T19:00:36;100432.31;;;11.96;73.00
43804;BME280;29430;52.924;-2.388;2022-10-18T19:05:35;100426.84;;;11.89;73.19
43804;BME280;29430;52.924;-2.388;2022-10-18T19:10:27;100419.31;;;11.85;73.32
43804;BME280;29430;52.924;-2.388;2022-10-18T19:15:19;100421.19;;;11.77;73.18
43804;BME280;29430;52.924;-2.388;2022-10-18T19:20:12;100417.00;;;11.68;73.78
43804;BME280;29430;52.924;-2.388;2022-10-18T19:25:06;100418.47;;;11.64;74.31
43804;BME280;29430;52.924;-2.388;2022-10-18T19:29:58;100415.97;;;11.56;74.12
43804;BME280;29430;52.924;-2.388;2022-10-18T19:34:51;100404.03;;;11.50;74.65
43804;BME280;29430;52.924;-2.388;2022-10-18T19:39:43;100404.44;;;11.40;76.15
43804;BME280;29430;52.924;-2.388;2022-10-18T19:44:35;100394.59;;;11.33;76.83
43804;BME280;29430;52.924;-2.388;2022-10-18T19:49:27;100401.47;;;11.22;77.60
43804;BME280;29430;52.924;-2.388;2022-10-18T19:54:19;100408.13;;;11.13;78.36
43804;BME280;29430;52.924;-2.388;2022-10-18T19:59:12;100401.63;;;11.07;79.62
43804;BME280;29430;52.924;-2.388;2022-10-18T20:04:05;100393.03;;;10.97;80.61
43804;BME280;29430;52.924;-2.388;2022-10-18T20:08:58;100384.25;;;10.88;81.28
43804;BME280;29430;52.924;-2.388;2022-10-18T20:13:50;100390.91;;;10.79;82.20
43804;BME280;29430;52.924;-2.388;2022-10-18T20:18:42;100378.34;;;10.71;83.25
43804;BME280;29430;52.924;-2.388;2022-10-18T20:23:36;100388.50;;;10.62;83.29
43804;BME280;29430;52.924;-2.388;2022-10-18T20:28:28;100401.19;;;10.55;84.30
43804;BME280;29430;52.924;-2.388;2022-10-18T20:33:20;100407.47;;;10.49;85.20
43804;BME280;29430;52.924;-2.388;2022-10-18T20:38:12;100415.53;;;10.42;84.75
43804;BME280;29430;52.924;-2.388;2022-10-18T20:43:03;100410.06;;;10.35;85.15
43804;BME280;29430;52.924;-2.388;2022-10-18T20:47:55;100421.94;;;10.34;85.44
43804;BME280;29430;52.924;-2.388;2022-10-18T20:52:47;100401.03;;;10.28;86.34
43804;BME280;29430;52.924;-2.388;2022-10-18T20:57:41;100396.41;;;10.22;86.13
43804;BME280;29430;52.924;-2.388;2022-10-18T21:02:33;100417.84;;;10.17;86.67
43804;BME280;29430;52.924;-2.388;2022-10-18T21:07:25;100392.16;;;10.13;86.49
43804;BME280;29430;52.924;-2.388;2022-10-18T21:12:17;100391.31;;;10.06;87.19
43804;BME280;29430;52.924;-2.388;2022-10-18T21:17:09;100372.47;;;9.97;86.82
43804;BME280;29430;52.924;-2.388;2022-10-18T21:22:00;100374.72;;;9.94;87.57
43804;BME280;29430;52.924;-2.388;2022-10-18T21:26:52;100368.41;;;9.86;87.92
43804;BME280;29430;52.924;-2.388;2022-10-18T21:31:45;100368.63;;;9.85;88.35
43804;BME280;29430;52.924;-2.388;2022-10-18T21:36:36;100367.34;;;9.81;88.50
43804;BME280;29430;52.924;-2.388;2022-10-18T21:41:29;100374.81;;;9.79;88.82
43804;BME280;29430;52.924;-2.388;2022-10-18T21:46:23;100364.56;;;9.74;88.78
43804;BME280;29430;52.924;-2.388;2022-10-18T21:51:19;100373.56;;;9.75;89.80
43804;BME280;29430;52.924;-2.388;2022-10-18T21:56:32;100375.81;;;9.71;89.39
43804;BME280;29430;52.924;-2.388;2022-10-18T22:01:26;100374.72;;;9.65;89.55
43804;BME280;29430;52.924;-2.388;2022-10-18T22:06:19;100355.31;;;9.62;89.16
43804;BME280;29430;52.924;-2.388;2022-10-18T22:11:12;100331.31;;;9.59;89.43
43804;BME280;29430;52.924;-2.388;2022-10-18T22:16:05;100318.38;;;9.54;89.61
43804;BME280;29430;52.924;-2.388;2022-10-18T22:21:04;100314.22;;;9.52;89.94
43804;BME280;29430;52.924;-2.388;2022-10-18T22:26:01;100314.59;;;9.48;91.00
43804;BME280;29430;52.924;-2.388;2022-10-18T22:30:53;100318.72;;;9.44;91.51
43804;BME280;29430;52.924;-2.388;2022-10-18T22:35:48;100315.38;;;9.42;92.13
43804;BME280;29430;52.924;-2.388;2022-10-18T22:40:40;100297.22;;;9.36;92.24
43804;BME280;29430;52.924;-2.388;2022-10-18T22:45:32;100305.53;;;9.35;93.47
43804;BME280;29430;52.924;-2.388;2022-10-18T22:50:24;100313.38;;;9.29;95.32
43804;BME280;29430;52.924;-2.388;2022-10-18T22:55:16;100325.25;;;9.28;95.84
43804;BME280;29430;52.924;-2.388;2022-10-18T23:00:08;100341.03;;;9.25;96.35
43804;BME280;29430;52.924;-2.388;2022-10-18T23:05:00;100336.84;;;9.22;96.30
43804;BME280;29430;52.924;-2.388;2022-10-18T23:09:52;100326.03;;;9.22;97.01
43804;BME280;29430;52.924;-2.388;2022-10-18T23:14:44;100319.94;;;9.20;97.74
43804;BME280;29430;52.924;-2.388;2022-10-18T23:19:36;100331.44;;;9.22;98.70
43804;BME280;29430;52.924;-2.388;2022-10-18T23:24:28;100328.72;;;9.22;98.85
43804;BME280;29430;52.924;-2.388;2022-10-18T23:29:19;100327.50;;;9.25;98.86
43804;BME280;29430;52.924;-2.388;2022-10-18T23:34:11;100322.28;;;9.23;99.41
43804;BME280;29430;52.924;-2.388;2022-10-18T23:39:03;100335.81;;;9.23;99.19
43804;BME280;29430;52.924;-2.388;2022-10-18T23:43:56;100316.22;;;9.21;98.82
43804;BME280;29430;52.924;-2.388;2022-10-18T23:48:48;100319.56;;;9.23;98.57
43804;BME280;29430;52.924;-2.388;2022-10-18T23:53:40;100333.09;;;9.23;98.77
43804;BME280;29430;52.924;-2.388;2022-10-18T23:58:33;100331.63;;;9.21;99.20
